createdAt,value
2018-04-09T00:00:37.498Z,15.87
2018-04-09T00:03:05.749Z,17.30
2018-04-09T00:05:34.776Z,15.40
2018-04-09T00:08:03.034Z,15.03
2018-04-09T00:10:31.307Z,18.00
2018-04-09T00:12:59.592Z,17.00
2018-04-09T00:15:27.854Z,16.37
2018-04-09T00:17:56.114Z,14.60
2018-04-09T00:20:25.144Z,16.47
2018-04-09T00:22:53.409Z,15.77
2018-04-09T00:25:21.673Z,16.30
2018-04-09T00:27:50.697Z,22.30
2018-04-09T00:30:18.970Z,16.73
2018-04-09T00:32:47.230Z,18.20
2018-04-09T00:35:15.489Z,17.27
2018-04-09T00:37:44.514Z,18.37
2018-04-09T00:40:12.781Z,13.60
2018-04-09T00:42:41.046Z,16.30
2018-04-09T00:45:09.312Z,14.60
2018-04-09T00:47:37.570Z,16.50
2018-04-09T00:50:06.606Z,15.70
2018-04-09T00:52:34.854Z,14.53
2018-04-09T00:55:03.889Z,17.97
2018-04-09T00:57:32.151Z,18.37
2018-04-09T01:00:00.417Z,19.43
2018-04-09T01:02:28.677Z,18.87
2018-04-09T01:04:57.702Z,15.67
2018-04-09T01:07:25.971Z,15.37
2018-04-09T01:09:54.226Z,16.53
2018-04-09T01:12:23.258Z,17.60
2018-04-09T01:14:51.505Z,17.57
2018-04-09T01:17:19.772Z,18.63
2018-04-09T01:19:48.036Z,16.30
2018-04-09T01:22:17.055Z,17.90
2018-04-09T01:24:45.301Z,17.13
2018-04-09T01:27:14.333Z,16.03
2018-04-09T01:29:42.582Z,18.67
2018-04-09T01:32:11.612Z,18.23
2018-04-09T01:34:39.867Z,18.27
2018-04-09T01:37:08.125Z,17.83
2018-04-09T01:39:36.386Z,21.10
2018-04-09T01:42:05.418Z,23.03
2018-04-09T01:44:33.671Z,18.30
2018-04-09T01:47:02.687Z,20.33
2018-04-09T01:49:30.937Z,20.00
2018-04-09T01:51:59.227Z,19.73
2018-04-09T01:54:27.470Z,21.00
2018-04-09T01:56:55.720Z,19.27
2018-04-09T01:59:23.982Z,24.07
2018-04-09T02:01:52.228Z,18.17
2018-04-09T02:04:20.486Z,17.80
2018-04-09T02:06:49.497Z,17.70
2018-04-09T02:09:17.747Z,21.70
2018-04-09T02:11:46.758Z,17.70
2018-04-09T02:14:15.019Z,23.43
2018-04-09T02:16:44.031Z,20.33
2018-04-09T02:19:12.289Z,20.00
2018-04-09T02:21:41.301Z,19.83
2018-04-09T02:24:09.556Z,19.20
2018-04-09T02:26:38.576Z,17.60
2018-04-09T02:29:06.828Z,19.00
2018-04-09T02:31:35.842Z,19.63
2018-04-09T02:34:04.111Z,21.87
2018-04-09T02:36:32.353Z,19.10
2018-04-09T02:39:00.595Z,20.17
2018-04-09T02:41:28.852Z,20.03
2018-04-09T02:43:57.098Z,21.60
2018-04-09T02:46:26.104Z,23.80
2018-04-09T02:48:54.382Z,26.37
2018-04-09T02:51:23.374Z,20.57
2018-04-09T02:53:51.627Z,19.70
2018-04-09T02:56:20.650Z,17.17
2018-04-09T02:58:48.894Z,28.93
2018-04-09T03:01:17.151Z,24.00
2018-04-09T03:03:45.397Z,22.90
2018-04-09T03:06:13.650Z,26.23
2018-04-09T03:08:41.898Z,20.97
2018-04-09T03:11:10.911Z,22.33
2018-04-09T03:13:39.168Z,19.37
2018-04-09T03:16:07.414Z,19.50
2018-04-09T03:18:35.658Z,20.67
2018-04-09T03:21:03.909Z,20.37
2018-04-09T03:23:32.159Z,20.50
2018-04-09T03:26:00.430Z,21.93
2018-04-09T03:28:28.672Z,24.10
2018-04-09T03:30:56.922Z,19.00
2018-04-09T03:33:25.184Z,23.40
2018-04-09T03:35:53.429Z,22.73
2018-04-09T03:38:21.682Z,19.90
2018-04-09T03:40:49.939Z,19.03
2018-04-09T03:43:18.188Z,21.30
2018-04-09T03:45:46.439Z,20.27
2018-04-09T03:48:14.690Z,21.73
2018-04-09T03:50:42.938Z,29.97
2018-04-09T03:53:11.193Z,23.80
2018-04-09T03:55:39.443Z,19.90
2018-04-09T03:58:08.465Z,17.87
2018-04-09T04:00:36.713Z,20.37
2018-04-09T04:03:05.739Z,22.60
2018-04-09T04:05:33.981Z,26.70
2018-04-09T04:08:02.998Z,24.90
2018-04-09T04:10:31.240Z,24.47
2018-04-09T04:12:59.498Z,24.00
2018-04-09T04:15:45.625Z,23.70
2018-04-09T04:18:27.198Z,23.07
2018-04-09T04:21:14.101Z,20.03
2018-04-09T04:23:42.349Z,21.57
2018-04-09T04:26:10.601Z,21.63
2018-04-09T04:28:38.860Z,22.83
2018-04-09T04:31:07.129Z,25.33
2018-04-09T04:33:35.365Z,22.17
2018-04-09T04:36:03.614Z,20.80
2018-04-09T04:38:31.868Z,19.93
2018-04-09T04:41:00.118Z,19.07
2018-04-09T04:43:29.133Z,21.50
2018-04-09T04:45:57.380Z,27.90
2018-04-09T04:48:25.639Z,21.80
2018-04-09T04:50:53.969Z,21.23
2018-04-09T04:53:22.215Z,32.57
2018-04-09T04:55:51.236Z,27.30
2018-04-09T04:58:19.485Z,29.97
2018-04-09T05:00:48.500Z,26.70
2018-04-09T05:03:16.748Z,24.30
2018-04-09T05:05:45.777Z,25.23
2018-04-09T05:08:14.019Z,25.33
2018-04-09T05:10:43.040Z,26.33
2018-04-09T05:13:11.278Z,24.50
2018-04-09T05:15:39.534Z,23.77
2018-04-09T05:18:07.786Z,25.17
2018-04-09T05:20:36.089Z,20.57
2018-04-09T05:23:04.290Z,24.73
2018-04-09T05:25:33.316Z,21.43
2018-04-09T05:28:01.552Z,22.40
2018-04-09T05:30:29.806Z,22.13
2018-04-09T05:32:58.055Z,20.57
2018-04-09T05:35:26.299Z,18.80
2018-04-09T05:37:55.322Z,23.80
2018-04-09T05:40:23.566Z,21.17
2018-04-09T05:42:52.585Z,19.20
2018-04-09T05:45:20.834Z,20.23
2018-04-09T05:47:49.856Z,21.37
2018-04-09T05:50:18.096Z,22.77
2018-04-09T05:52:47.114Z,24.00
2018-04-09T05:55:15.357Z,19.00
2018-04-09T05:57:44.378Z,22.30
2018-04-09T06:00:12.639Z,24.37
2018-04-09T06:02:41.654Z,28.40
2018-04-09T06:05:09.898Z,19.33
2018-04-09T06:07:38.917Z,19.53
2018-04-09T06:10:07.174Z,20.10
2018-04-09T06:12:36.219Z,19.07
2018-04-09T06:15:04.463Z,21.10
2018-04-09T06:17:32.713Z,19.77
2018-04-09T06:20:01.730Z,23.53
2018-04-09T06:22:29.985Z,18.53
2018-04-09T06:24:59.006Z,20.17
2018-04-09T06:27:27.256Z,19.63
2018-04-09T06:29:56.273Z,17.60
2018-04-09T06:32:24.529Z,19.80
2018-04-09T06:34:53.542Z,21.50
2018-04-09T06:37:21.797Z,19.57
2018-04-09T06:39:50.819Z,18.03
2018-04-09T06:42:19.068Z,18.67
2018-04-09T06:44:48.077Z,21.40
2018-04-09T06:47:16.337Z,28.30
2018-04-09T06:49:44.585Z,18.27
2018-04-09T06:52:12.865Z,18.23
2018-04-09T06:54:41.883Z,16.93
2018-04-09T06:57:10.899Z,18.93
2018-04-09T06:59:39.153Z,18.27
2018-04-09T07:02:07.401Z,20.50
2018-04-09T07:04:35.655Z,22.83
2018-04-09T07:07:03.901Z,27.77
2018-04-09T07:09:32.163Z,23.63
2018-04-09T07:12:00.411Z,17.83
2018-04-09T07:14:29.434Z,24.07
2018-04-09T07:16:57.685Z,19.50
2018-04-09T07:19:26.709Z,24.60
2018-04-09T07:21:54.966Z,21.17
2018-04-09T07:24:23.225Z,22.23
2018-04-09T07:26:51.477Z,18.00
2018-04-09T07:29:19.741Z,18.80
2018-04-09T07:31:47.996Z,20.10
2018-04-09T07:34:16.263Z,20.43
2018-04-09T07:36:44.512Z,22.27
2018-04-09T07:39:13.549Z,20.63
2018-04-09T07:41:41.797Z,18.83
2018-04-09T07:44:10.067Z,26.63
2018-04-09T07:46:38.321Z,20.33
2018-04-09T07:49:07.349Z,19.00
2018-04-09T07:51:35.610Z,16.50
2018-04-09T07:54:04.078Z,22.53
2018-04-09T07:56:33.097Z,23.20
2018-04-09T07:59:01.355Z,18.40
2018-04-09T08:01:30.387Z,20.00
2018-04-09T08:03:58.634Z,20.23
2018-04-09T08:06:26.914Z,20.63
2018-04-09T08:08:55.202Z,21.13
2018-04-09T08:11:23.463Z,19.87
2018-04-09T08:13:51.706Z,20.10
2018-04-09T08:16:19.970Z,22.97
2018-04-09T08:18:48.222Z,23.77
2018-04-09T08:21:16.480Z,20.07
2018-04-09T08:23:44.727Z,21.73
2018-04-09T08:26:13.759Z,22.63
2018-04-09T08:28:42.005Z,22.10
2018-04-09T08:31:10.261Z,23.13
2018-04-09T08:33:39.282Z,20.37
2018-04-09T08:36:07.543Z,23.43
2018-04-09T08:38:36.554Z,22.60
2018-04-09T08:41:04.830Z,24.17
2018-04-09T08:43:33.082Z,27.03
2018-04-09T08:46:02.102Z,24.33
2018-04-09T08:48:30.357Z,24.37
2018-04-09T08:50:59.375Z,22.47
2018-04-09T08:53:27.630Z,22.40
2018-04-09T08:55:55.877Z,28.73
2018-04-09T08:58:24.141Z,23.90
2018-04-09T09:00:52.389Z,24.17
2018-04-09T09:03:20.646Z,23.10
2018-04-09T09:05:48.898Z,21.40
2018-04-09T09:08:17.923Z,22.20
2018-04-09T09:10:46.171Z,24.50
2018-04-09T09:13:15.192Z,32.07
2018-04-09T09:15:43.450Z,20.73
2018-04-09T09:18:11.712Z,21.37
2018-04-09T09:20:40.718Z,23.47
2018-04-09T09:23:08.985Z,25.73
2018-04-09T09:25:38.823Z,22.93
2018-04-09T09:28:07.073Z,26.93
2018-04-09T09:30:36.097Z,26.10
2018-04-09T09:33:04.350Z,23.27
2018-04-09T09:35:32.619Z,22.13
2018-04-09T09:38:01.634Z,23.77
2018-04-09T09:40:29.890Z,22.37
2018-04-09T09:42:58.144Z,27.80
2018-04-09T09:45:26.399Z,20.77
2018-04-09T09:47:54.646Z,17.47
2018-04-09T09:50:22.895Z,20.80
2018-04-09T09:52:51.145Z,24.93
2018-04-09T09:55:20.169Z,19.67
2018-04-09T09:57:48.421Z,23.87
2018-04-09T10:00:17.449Z,19.40
2018-04-09T10:02:51.158Z,19.70
2018-04-09T10:05:19.426Z,23.60
2018-04-09T10:07:47.692Z,19.10
2018-04-09T10:10:15.938Z,25.63
2018-04-09T10:12:44.959Z,18.60
2018-04-09T10:15:13.207Z,24.10
2018-04-09T10:17:41.469Z,19.87
2018-04-09T10:20:09.725Z,18.93
2018-04-09T10:22:37.975Z,19.40
2018-04-09T10:25:06.231Z,18.53
2018-04-09T10:27:34.490Z,17.60
2018-04-09T10:30:03.500Z,16.80
2018-04-09T10:32:31.754Z,17.13
2018-04-09T10:35:00.775Z,18.03
2018-04-09T10:37:29.029Z,17.07
2018-04-09T10:39:57.278Z,17.83
2018-04-09T10:42:25.537Z,16.43
2018-04-09T10:44:53.790Z,18.00
2018-04-09T10:47:22.066Z,22.20
2018-04-09T10:49:50.311Z,19.50
2018-04-09T10:52:19.318Z,22.90
2018-04-09T10:54:47.574Z,17.30
2018-04-09T10:57:15.826Z,17.70
2018-04-09T10:59:44.085Z,17.87
2018-04-09T11:02:12.340Z,16.70
2018-04-09T11:04:40.600Z,18.23
2018-04-09T11:07:08.845Z,16.47
2018-04-09T11:09:37.866Z,19.43
2018-04-09T11:12:06.122Z,21.40
2018-04-09T11:14:35.140Z,18.10
2018-04-09T11:17:03.389Z,19.87
2018-04-09T11:19:32.416Z,16.10
2018-04-09T11:22:00.666Z,14.33
2018-04-09T11:24:28.922Z,15.70
2018-04-09T11:26:57.173Z,16.57
2018-04-09T11:29:25.445Z,17.17
2018-04-09T11:31:53.681Z,18.77
2018-04-09T11:34:21.953Z,15.13
2018-04-09T11:36:50.211Z,15.20
2018-04-09T11:39:18.460Z,14.67
2018-04-09T11:41:46.713Z,21.63
2018-04-09T11:44:14.984Z,16.33
2018-04-09T11:46:43.245Z,14.97
2018-04-09T11:49:11.495Z,15.40
2018-04-09T11:51:40.516Z,16.20
2018-04-09T11:54:08.768Z,17.37
2018-04-09T11:56:37.028Z,17.00
2018-04-09T11:59:06.040Z,17.40
2018-04-09T12:01:34.302Z,14.40
2018-04-09T12:04:03.314Z,21.10
2018-04-09T12:06:31.575Z,16.13
2018-04-09T12:09:00.600Z,16.43
2018-04-09T12:11:28.859Z,15.07
2018-04-09T12:13:57.113Z,16.13
2018-04-09T12:16:26.144Z,17.57
2018-04-09T12:18:54.388Z,15.43
2018-04-09T12:21:23.412Z,24.73
2018-04-09T12:23:51.656Z,16.57
2018-04-09T12:26:20.680Z,15.23
2018-04-09T12:28:48.932Z,14.83
2018-04-09T12:31:17.191Z,17.07
2018-04-09T12:33:45.443Z,14.33
2018-04-09T12:36:13.707Z,21.03
2018-04-09T12:38:41.953Z,17.80
2018-04-09T12:41:10.200Z,16.37
2018-04-09T12:43:38.464Z,14.83
2018-04-09T12:46:06.780Z,17.03
2018-04-09T12:48:35.043Z,20.43
2018-04-09T12:51:03.296Z,20.83
2018-04-09T12:53:32.316Z,14.00
2018-04-09T12:56:00.568Z,18.27
2018-04-09T12:58:29.587Z,12.30
2018-04-09T13:03:25.183Z,13.23
2018-04-09T13:05:53.431Z,13.37
2018-04-09T13:08:21.696Z,14.97
2018-04-09T13:10:50.711Z,12.60
2018-04-09T13:13:18.982Z,12.73
2018-04-09T13:15:47.240Z,13.43
2018-04-09T13:18:15.508Z,10.13
2018-04-09T13:20:43.755Z,9.67
2018-04-09T13:23:12.017Z,12.57
2018-04-09T13:25:40.272Z,11.83
2018-04-09T13:28:08.519Z,14.73
2018-04-09T13:30:36.789Z,12.70
2018-04-09T13:33:05.040Z,11.37
2018-04-09T13:35:33.349Z,10.83
2018-04-09T13:38:01.619Z,11.90
2018-04-09T13:40:29.883Z,11.30
2018-04-09T13:42:58.143Z,14.90
2018-04-09T13:45:26.407Z,12.33
2018-04-09T13:47:54.667Z,13.90
2018-04-09T13:50:22.931Z,12.50
2018-04-09T13:52:51.960Z,19.70
2018-04-09T13:55:20.224Z,16.80
2018-04-09T13:57:48.481Z,16.07
2018-04-09T14:00:16.739Z,23.97
2018-04-09T14:02:44.991Z,16.27
2018-04-09T14:05:13.276Z,16.90
2018-04-09T14:07:41.527Z,20.47
2018-04-09T14:10:09.793Z,25.63
2018-04-09T14:12:38.047Z,26.70
2018-04-09T14:15:06.321Z,22.30
2018-04-09T14:17:34.567Z,23.47
2018-04-09T14:20:03.586Z,21.87
2018-04-09T14:22:31.849Z,25.60
2018-04-09T14:25:00.108Z,21.60
2018-04-09T14:27:28.375Z,22.03
2018-04-09T14:29:56.630Z,20.77
2018-04-09T14:32:24.890Z,20.90
2018-04-09T14:34:53.144Z,23.30
2018-04-09T14:37:22.171Z,27.80
2018-04-09T14:39:50.423Z,19.27
2018-04-09T14:42:18.684Z,21.83
2018-04-09T14:44:47.702Z,26.20
2018-04-09T14:47:15.967Z,29.63
2018-04-09T14:49:44.988Z,17.93
2018-04-09T14:52:13.257Z,21.53
2018-04-09T14:54:41.502Z,27.93
2018-04-09T14:57:09.763Z,22.00
2018-04-09T14:59:38.016Z,23.80
2018-04-09T15:02:06.287Z,22.40
2018-04-09T15:04:34.542Z,24.10
2018-04-09T15:07:02.811Z,24.20
2018-04-09T15:09:31.070Z,27.90
2018-04-09T15:11:59.324Z,24.20
2018-04-09T15:14:27.590Z,21.70
2018-04-09T15:16:55.839Z,23.73
2018-04-09T15:19:24.111Z,23.37
2018-04-09T15:21:53.128Z,25.10
2018-04-09T15:24:21.388Z,26.30
2018-04-09T15:26:49.657Z,26.73
2018-04-09T15:29:17.900Z,39.10
2018-04-09T15:31:46.153Z,30.03
2018-04-09T15:34:14.416Z,26.83
2018-04-09T15:36:43.436Z,28.10
2018-04-09T15:39:11.696Z,27.73
2018-04-09T15:41:40.716Z,28.77
2018-04-09T15:44:08.969Z,30.40
2018-04-09T15:46:37.984Z,31.17
2018-04-09T15:49:06.249Z,28.50
2018-04-09T15:51:34.501Z,29.30
2018-04-09T15:54:03.531Z,26.30
2018-04-09T15:56:31.780Z,25.33
2018-04-09T15:59:00.032Z,30.33
2018-04-09T16:01:28.300Z,21.17
2018-04-09T16:03:56.548Z,31.50
2018-04-09T16:06:24.819Z,26.00
2018-04-09T16:08:53.067Z,32.27
2018-04-09T16:11:21.324Z,23.43
2018-04-09T16:13:50.337Z,29.70
2018-04-09T16:16:18.595Z,31.63
2018-04-09T16:18:47.614Z,24.70
2018-04-09T16:21:15.871Z,24.67
2018-04-09T16:23:44.930Z,26.53
2018-04-09T16:26:13.155Z,27.77
2018-04-09T16:28:41.400Z,26.20
2018-04-09T16:31:09.652Z,31.60
2018-04-09T16:33:37.905Z,23.40
2018-04-09T16:36:06.156Z,24.43
2018-04-09T16:38:34.411Z,27.30
2018-04-09T16:41:03.439Z,32.30
2018-04-09T16:43:31.687Z,29.40
2018-04-09T16:46:00.705Z,27.83
2018-04-09T16:48:28.967Z,23.30
2018-04-09T16:50:57.223Z,30.40
2018-04-09T16:53:26.255Z,33.33
2018-04-09T16:55:54.503Z,30.50
2018-04-09T16:58:23.520Z,28.70
2018-04-09T17:00:51.768Z,31.50
2018-04-09T17:03:20.788Z,27.17
2018-04-09T17:05:49.045Z,22.60
2018-04-09T17:08:17.296Z,21.90
2018-04-09T17:10:46.307Z,22.90
2018-04-09T17:13:14.566Z,22.87
2018-04-09T17:15:43.591Z,20.33
2018-04-09T17:18:11.852Z,27.30
2018-04-09T17:20:40.873Z,21.10
2018-04-09T17:23:09.127Z,19.70
2018-04-09T17:25:37.381Z,21.23
2018-04-09T17:28:06.412Z,22.77
2018-04-09T17:30:34.664Z,26.17
2018-04-09T17:33:03.688Z,24.40
2018-04-09T17:35:31.950Z,25.67
2018-04-09T17:38:00.196Z,25.37
2018-04-09T17:40:29.218Z,29.73
2018-04-09T17:42:57.469Z,23.73
2018-04-09T17:48:00.093Z,25.13
2018-04-09T17:50:28.350Z,31.77
2018-04-09T17:52:56.599Z,27.00
2018-04-09T17:55:24.859Z,26.63
2018-04-09T17:57:53.109Z,22.83
2018-04-09T18:00:21.369Z,23.93
2018-04-09T18:02:49.620Z,27.90
2018-04-09T18:05:18.637Z,22.73
2018-04-09T18:07:46.890Z,25.47
2018-04-09T18:10:15.912Z,29.13
2018-04-09T18:12:44.160Z,28.27
2018-04-09T18:15:13.192Z,28.23
2018-04-09T18:17:41.437Z,24.90
2018-04-09T18:20:09.708Z,28.87
2018-04-09T18:22:38.722Z,31.13
2018-04-09T18:25:06.977Z,28.87
2018-04-09T18:27:36.000Z,23.67
2018-04-09T18:30:04.266Z,33.63
2018-04-09T18:32:32.518Z,31.73
2018-04-09T18:35:00.776Z,37.63
2018-04-09T18:37:29.030Z,29.50
2018-04-09T18:39:57.285Z,26.57
2018-04-09T18:42:25.550Z,26.67
2018-04-09T18:44:53.800Z,23.37
2018-04-09T18:47:22.823Z,21.87
2018-04-09T18:49:51.079Z,24.67
2018-04-09T18:52:20.115Z,26.23
2018-04-09T18:54:48.366Z,21.80
2018-04-09T18:57:16.625Z,30.50
2018-04-09T18:59:45.645Z,22.83
2018-04-09T19:02:13.908Z,22.30
2018-04-09T19:04:42.159Z,24.90
2018-04-09T19:07:10.424Z,28.67
2018-04-09T19:09:38.683Z,28.00
2018-04-09T19:12:06.939Z,24.93
2018-04-09T19:14:35.187Z,25.33
2018-04-09T19:17:04.224Z,24.60
2018-04-09T19:19:32.483Z,22.53
2018-04-09T19:22:00.737Z,30.40
2018-04-09T19:24:29.761Z,28.37
2018-04-09T19:26:58.008Z,20.73
2018-04-09T19:29:27.033Z,24.87
2018-04-09T19:31:55.288Z,23.23
2018-04-09T19:34:23.548Z,23.77
2018-04-09T19:40:01.940Z,24.00
2018-04-09T19:42:30.195Z,31.30
2018-04-09T19:44:58.450Z,24.13
2018-04-09T19:47:26.825Z,25.13
2018-04-09T19:49:55.091Z,28.10
2018-04-09T19:52:23.349Z,31.40
2018-04-09T19:54:51.607Z,41.13
2018-04-09T19:57:19.864Z,54.83
2018-04-09T19:59:48.248Z,27.20
2018-04-09T20:02:16.517Z,42.63
2018-04-09T20:04:44.791Z,238.27
2018-04-09T20:07:13.047Z,274.57
2018-04-09T20:09:41.312Z,129.77
2018-04-09T20:12:09.577Z,411.53
2018-04-09T20:14:38.716Z,197.83
2018-04-09T20:17:07.088Z,89.53
2018-04-09T20:19:35.371Z,45.70
2018-04-09T20:22:03.617Z,30.93
2018-04-09T20:24:31.881Z,34.93
2018-04-09T20:27:00.239Z,35.60
2018-04-09T20:29:29.275Z,28.60
2018-04-09T20:31:57.524Z,31.03
2018-04-09T20:34:25.784Z,25.03
2018-04-09T20:36:54.803Z,22.23
2018-04-09T20:39:23.094Z,33.53
2018-04-09T20:41:51.349Z,25.83
2018-04-09T20:44:19.608Z,25.30
2018-04-09T20:46:48.620Z,27.53
2018-04-09T20:49:16.922Z,26.83
2018-04-09T20:51:45.907Z,28.33
2018-04-09T20:54:14.178Z,23.07
2018-04-09T20:56:42.425Z,23.60
2018-04-09T20:59:11.459Z,24.80
2018-04-09T21:01:39.709Z,20.77
2018-04-09T21:04:07.965Z,23.97
2018-04-09T21:06:36.983Z,22.73
2018-04-09T21:09:05.272Z,26.83
2018-04-09T21:11:33.567Z,26.33
2018-04-09T21:14:01.871Z,24.77
2018-04-09T21:16:30.153Z,30.53
2018-04-09T21:18:59.191Z,20.20
2018-04-09T21:21:27.561Z,22.30
2018-04-09T21:23:55.896Z,24.50
2018-04-09T21:26:24.224Z,20.80
2018-04-09T21:28:52.535Z,26.97
2018-04-09T21:31:20.883Z,28.80
2018-04-09T21:33:49.187Z,25.23
2018-04-09T21:36:17.477Z,24.40
2018-04-09T21:38:45.728Z,31.73
2018-04-09T21:41:13.991Z,26.27
2018-04-09T21:43:42.252Z,26.70
2018-04-09T21:46:10.556Z,28.57
2018-04-09T21:48:38.766Z,25.93
2018-04-09T21:51:07.788Z,33.30
2018-04-09T21:53:36.040Z,35.73
2018-04-09T21:56:05.079Z,33.43
2018-04-09T21:58:33.336Z,32.37
2018-04-09T22:01:01.584Z,24.63
2018-04-09T22:03:30.612Z,33.57
2018-04-09T22:05:58.862Z,24.70
2018-04-09T22:08:27.889Z,28.30
2018-04-09T22:10:56.137Z,28.33
2018-04-09T22:13:25.155Z,30.27
2018-04-09T22:15:53.417Z,30.93
2018-04-09T22:18:21.676Z,24.43
2018-04-09T22:20:50.687Z,21.80
2018-04-09T22:23:18.944Z,27.97
2018-04-09T22:25:47.968Z,29.50
2018-04-09T22:28:16.232Z,21.43
2018-04-09T22:30:44.479Z,33.87
2018-04-09T22:33:13.502Z,24.87
2018-04-09T22:35:41.751Z,25.33
2018-04-09T22:38:10.773Z,22.87
2018-04-09T22:40:39.019Z,25.90
2018-04-09T22:43:08.043Z,23.93
2018-04-09T22:45:36.296Z,24.93
2018-04-09T22:48:04.549Z,28.80
2018-04-09T22:50:32.807Z,25.13
2018-04-09T22:53:01.064Z,24.70
2018-04-09T22:55:29.316Z,27.60
2018-04-09T22:57:57.563Z,26.17
2018-04-09T23:00:26.588Z,24.27
2018-04-09T23:02:54.848Z,24.80
2018-04-09T23:05:23.102Z,25.13
2018-04-09T23:07:52.113Z,22.47
2018-04-09T23:10:20.371Z,23.83
2018-04-09T23:12:49.391Z,20.37
2018-04-09T23:15:17.644Z,27.10
2018-04-09T23:17:46.659Z,21.60
2018-04-09T23:20:14.924Z,22.93
2018-04-09T23:22:43.181Z,20.60
2018-04-09T23:25:12.196Z,19.20
2018-04-09T23:27:40.471Z,23.93
2018-04-09T23:30:08.719Z,23.23
2018-04-09T23:32:36.978Z,19.50
2018-04-09T23:35:05.232Z,19.03
2018-04-09T23:37:33.493Z,20.27
2018-04-09T23:40:01.736Z,21.70
2018-04-09T23:42:30.767Z,21.00
2018-04-09T23:44:59.019Z,18.37
2018-04-09T23:47:27.284Z,22.80
2018-04-09T23:49:56.308Z,15.80
2018-04-09T23:52:24.565Z,19.20
2018-04-09T23:54:52.818Z,17.33
2018-04-09T23:57:21.840Z,17.23
2018-04-09T23:59:50.093Z,16.63
